Startpagina
METAR-TAF:

METAR-TAF

Vliegvelden :

Rheine, Duitsland

breedte: 52-18N, lengte: 007-23E, hoogte: 40 m

Actueel weer

Dit bericht is 58 minuten geleden gemaakt, om 18:20 UTC
Wind 2 kt uit het zuidzuidoosten
Temperatuur 22°C
Vochtigheid 41%
Druk 1016 hPa

METAR: ETHE 221820Z AUTO 16002KT //// // ////// 22/08 Q1016 ///

Tijdstip: 21:18 (19:18 UTC)

Verwachting

Dit bericht is 6 uur en het 20 minuten geleden gemaakt, om 12:58 UTC
Verwachting geldig van 22 om 11 UTC tot 22 om 20 UTC
Wind 6 kt uit het zuidoosten
Zicht: 1300 m
Weinig wolken op 6000 ft
Verspreide wolken op 28000 ft

TAF: ETHE 221258Z 2211/2220 14006KT 9999 NSW FEW060 SCT280 CANCEL 1300

Waarnemingen en weersverwachtingen van meer dan 4000 vliegvelden (METAR en TAF).

De beschikbare stations zijn de gele en rode punten op de kaart.

Ga met uw muis naar het station om de naam te zien.

Klik dan om waarnemingen en weersverwachtingen te zien.

kaart wijzigen: klik op de groene knoppen met een zwart kruis om in te zoomen, op de groene knop met een streepje om uit te zoomen of op de groene pijlen voor aangrenzende kaarten.


METAR-TAF: